Time;durP1;ratioP1;P1;durP2;ratioP2;P2;SDS_P1;SDS_P2;PMS_P1;PMS_P2;Temp;Humidity;BMP_temperature;BMP_pressure;BME280_temperature;BME280_humidity;BME280_pressure;Samples;Min_cycle;Max_cycle;Signal;HPM_P1;HPM_P2
2022/06/24 00:00:10;;;;;;;8.43;6.90;;;23.00;99.90;;;;;;5049067;28;20035;-33
2022/06/24 00:02:38;;;;;;;10.65;7.35;;;22.90;99.90;;;;;;5053892;28;20029;-33
2022/06/24 00:05:07;;;;;;;;;;;22.70;99.90;;;;;;5047073;28;20553;-28
2022/06/24 00:07:48;;;;;;;13.88;8.40;;;22.60;99.90;;;;;;5053815;28;20014;-32
2022/06/24 00:10:18;;;;;;;11.98;7.55;;;22.60;99.90;;;;;;5044354;28;20044;-28
2022/06/24 00:12:45;;;;;;;11.10;7.40;;;22.60;99.90;;;;;;5052803;28;20044;-33
2022/06/24 00:15:11;;;;;;;11.93;7.60;;;22.60;99.90;;;;;;5045479;28;20477;-34
2022/06/24 00:17:37;;;;;;;10.75;7.50;;;22.60;99.90;;;;;;5037902;28;20509;-30
2022/06/24 00:20:06;;;;;;;13.85;8.20;;;22.50;99.90;;;;;;5034312;28;20036;-37
2022/06/24 00:22:41;;;;;;;14.48;8.00;;;22.40;99.90;;;;;;5049633;28;20025;-38
2022/06/24 00:25:13;;;;;;;16.95;9.15;;;22.30;99.90;;;;;;5042059;28;20050;-37
2022/06/24 00:27:40;;;;;;;11.65;7.60;;;22.10;99.90;;;;;;5042464;28;20051;-36
2022/06/24 00:30:10;;;;;;;17.13;8.60;;;22.00;99.90;;;;;;5038342;28;20017;-39
2022/06/24 00:32:36;;;;;;;12.45;8.95;;;21.90;99.90;;;;;;5040123;28;20178;-40
2022/06/24 00:35:17;;;;;;;13.60;8.75;;;21.80;99.90;;;;;;5051776;28;20443;-39
2022/06/24 00:37:44;;;;;;;9.70;7.45;;;21.80;99.90;;;;;;5051771;28;20477;-38
2022/06/24 00:40:09;;;;;;;11.63;8.88;;;21.90;99.90;;;;;;5050823;28;20022;-37
2022/06/24 00:42:46;;;;;;;14.55;8.70;;;21.90;99.90;;;;;;5050691;28;20477;-40
2022/06/24 00:45:24;;;;;;;12.82;8.88;;;21.90;99.90;;;;;;5036473;28;20045;-39
2022/06/24 00:47:51;;;;;;;9.07;7.32;;;21.90;99.90;;;;;;5053901;28;20481;-40
2022/06/24 00:50:31;;;;;;;8.50;6.68;;;21.90;99.90;;;;;;5048254;28;20029;-38
2022/06/24 00:52:59;;;;;;;8.38;6.50;;;22.00;99.90;;;;;;5033725;28;20029;-38
2022/06/24 00:55:30;;;;;;;8.35;6.70;;;22.10;99.90;;;;;;5043930;28;20052;-36
2022/06/24 00:57:58;;;;;;;8.20;6.68;;;22.20;99.90;;;;;;5034807;28;20045;-29
2022/06/24 01:00:25;;;;;;;9.32;7.40;;;22.20;99.90;;;;;;5035782;28;20022;-29
2022/06/24 01:02:55;;;;;;;;;;;22.20;99.90;;;;;;5045036;28;20427;-32
2022/06/24 01:05:21;;;;;;;10.68;6.25;;;22.30;99.90;;;;;;5034333;28;19915;-30
2022/06/24 01:07:46;;;;;;;11.18;6.70;;;22.30;99.90;;;;;;5042885;28;20467;-29
2022/06/24 01:10:12;;;;;;;11.00;6.68;;;22.40;99.90;;;;;;5032331;28;20080;-55
2022/06/24 01:12:38;;;;;;;10.32;6.93;;;22.40;99.90;;;;;;5036173;28;20037;-37
2022/06/24 01:15:05;;;;;;;12.80;8.75;;;22.50;99.90;;;;;;5037884;28;20081;-37
2022/06/24 01:17:30;;;;;;;18.67;10.98;;;22.50;99.90;;;;;;5037127;28;20037;-37
2022/06/24 01:19:56;;;;;;;12.38;8.30;;;22.20;99.90;;;;;;5035938;28;20017;-43
2022/06/24 01:22:23;;;;;;;9.63;6.28;;;21.80;99.90;;;;;;5056366;28;20028;-39
2022/06/24 01:24:49;;;;;;;12.75;5.90;;;21.30;99.90;;;;;;5044750;28;20021;-40
2022/06/24 01:27:15;;;;;;;14.30;6.68;;;20.70;99.90;;;;;;5034116;28;20048;-39
2022/06/24 01:29:41;;;;;;;14.60;5.43;;;20.40;99.90;;;;;;5041613;28;20082;-38
2022/06/24 01:32:07;;;;;;;10.68;5.10;;;20.20;99.90;;;;;;5046495;28;20569;-34
2022/06/24 01:34:33;;;;;;;6.32;3.78;;;20.00;99.90;;;;;;5045848;28;20025;-31
2022/06/24 01:36:58;;;;;;;4.50;2.70;;;19.80;99.90;;;;;;5038057;28;20029;-32
2022/06/24 01:39:24;;;;;;;12.38;3.15;;;19.50;99.90;;;;;;5054618;28;20033;-29
2022/06/24 01:41:50;;;;;;;16.33;4.47;;;19.40;99.90;;;;;;5042681;28;20025;-39
2022/06/24 01:44:16;;;;;;;6.75;2.50;;;19.20;99.90;;;;;;5036352;28;20083;-39
2022/06/24 01:46:42;;;;;;;8.95;2.60;;;19.00;99.90;;;;;;5036358;28;20037;-37
2022/06/24 01:49:08;;;;;;;5.05;1.98;;;18.70;99.90;;;;;;5036250;28;20477;-36
2022/06/24 01:51:36;;;;;;;3.55;1.63;;;18.60;99.90;;;;;;5047325;28;20025;-33
2022/06/24 01:54:02;;;;;;;3.70;1.95;;;18.40;99.90;;;;;;5051740;28;20063;-32
2022/06/24 01:56:28;;;;;;;5.90;2.05;;;18.20;99.90;;;;;;5038859;28;20021;-31
2022/06/24 01:58:54;;;;;;;2.85;1.98;;;18.10;99.90;;;;;;5038487;28;20040;-48
2022/06/24 02:01:19;;;;;;;2.03;1.92;;;18.00;99.90;;;;;;5038714;28;20024;-38
2022/06/24 02:03:45;;;;;;;5.28;2.30;;;17.90;99.90;;;;;;5046560;28;20024;-36
2022/06/24 02:06:12;;;;;;;3.05;2.20;;;17.80;99.90;;;;;;5039680;28;20022;-31
2022/06/24 02:08:39;;;;;;;8.75;2.42;;;17.80;99.90;;;;;;5053852;28;20524;-38
2022/06/24 02:13:49;;;;;;;7.38;2.72;;;17.80;99.90;;;;;;5042135;28;20721;-39
2022/06/24 02:16:18;;;;;;;9.07;2.53;;;17.80;99.90;;;;;;5046013;28;20120;-39
2022/06/24 02:18:44;;;;;;;2.58;2.22;;;17.70;99.90;;;;;;5050251;28;20028;-45
2022/06/24 02:21:10;;;;;;;5.10;2.17;;;17.70;99.90;;;;;;5047691;28;20104;-38
2022/06/24 02:23:35;;;;;;;5.10;2.20;;;17.70;99.90;;;;;;5036126;28;20461;-38
2022/06/24 02:26:01;;;;;;;5.38;2.33;;;17.70;99.90;;;;;;5038247;28;20029;-37
2022/06/24 02:28:26;;;;;;;4.85;2.45;;;17.70;99.90;;;;;;5035637;28;20026;-37
2022/06/24 02:30:54;;;;;;;3.10;2.58;;;17.60;99.90;;;;;;5041649;28;20037;-36
2022/06/24 02:33:20;;;;;;;;;;;17.60;99.90;;;;;;5038609;28;20092;-37
2022/06/24 02:35:46;;;;;;;6.47;3.08;;;17.60;99.90;;;;;;5044840;28;19913;-36
2022/06/24 02:38:11;;;;;;;7.18;3.75;;;17.60;99.90;;;;;;5047029;28;20021;-36
2022/06/24 02:40:46;;;;;;;5.55;3.78;;;17.60;99.90;;;;;;5043505;28;20057;-35
2022/06/24 02:43:12;;;;;;;7.15;4.25;;;17.70;99.90;;;;;;5054348;28;20044;-37
2022/06/24 02:45:42;;;;;;;9.95;4.13;;;17.70;99.90;;;;;;5052127;28;20481;-37
2022/06/24 02:48:08;;;;;;;8.52;4.15;;;17.70;99.90;;;;;;5049483;28;20132;-36
2022/06/24 02:50:40;;;;;;;7.55;4.60;;;17.70;99.90;;;;;;5047260;28;20041;-36
2022/06/24 02:53:06;;;;;;;9.50;5.00;;;17.80;99.90;;;;;;5042676;28;20106;-36
2022/06/24 02:55:32;;;;;;;10.80;5.78;;;17.90;99.90;;;;;;5049734;28;20048;-31
2022/06/24 02:57:57;;;;;;;9.25;6.60;;;18.00;99.90;;;;;;5047810;28;20022;-33
2022/06/24 03:00:23;;;;;;;9.95;6.00;;;18.00;99.90;;;;;;5038181;28;20478;-31
2022/06/24 03:02:49;;;;;;;12.27;5.57;;;18.00;99.90;;;;;;5043119;28;20029;-32
2022/06/24 03:05:14;;;;;;;9.32;5.13;;;18.00;99.90;;;;;;5039616;28;20033;-29
2022/06/24 03:07:40;;;;;;;8.40;5.18;;;18.10;99.90;;;;;;5042648;28;20033;-34
2022/06/24 03:10:06;;;;;;;8.07;5.45;;;18.10;99.90;;;;;;5043576;28;20033;-33
2022/06/24 03:12:31;;;;;;;6.38;4.93;;;18.10;99.90;;;;;;5044456;28;20025;-35
2022/06/24 03:14:57;;;;;;;7.18;4.30;;;18.10;99.90;;;;;;5047774;28;20474;-35
2022/06/24 03:17:22;;;;;;;4.32;3.92;;;18.10;99.90;;;;;;5040212;28;20055;-32
2022/06/24 03:19:48;;;;;;;6.07;3.03;;;18.10;99.90;;;;;;5045637;28;20068;-32
2022/06/24 03:22:14;;;;;;;5.82;3.17;;;18.10;99.90;;;;;;5039422;28;20120;-32
2022/06/24 03:24:40;;;;;;;5.45;3.10;;;18.10;99.90;;;;;;5047797;28;20515;-39
2022/06/24 03:27:06;;;;;;;3.75;3.22;;;18.20;99.90;;;;;;5034065;28;20064;-34
2022/06/24 03:29:31;;;;;;;3.53;2.70;;;18.20;99.90;;;;;;5045021;28;20493;-30
2022/06/24 03:31:57;;;;;;;2.97;2.63;;;18.30;99.90;;;;;;5050580;28;20056;-31
2022/06/24 03:34:23;;;;;;;6.18;3.08;;;18.30;99.90;;;;;;5038623;28;20029;-35
2022/06/24 03:36:49;;;;;;;5.63;2.67;;;18.30;99.90;;;;;;5040182;28;20025;-32
2022/06/24 03:39:15;;;;;;;8.60;3.40;;;18.30;99.90;;;;;;5039746;28;20084;-32
2022/06/24 03:41:40;;;;;;;4.82;3.28;;;18.30;99.90;;;;;;5049046;28;20086;-46
2022/06/24 03:44:06;;;;;;;8.90;3.53;;;18.30;99.90;;;;;;5053442;28;20103;-35
2022/06/24 03:46:32;;;;;;;7.53;2.92;;;18.30;99.90;;;;;;5048574;28;20055;-33
2022/06/24 03:48:57;;;;;;;4.88;2.53;;;18.20;99.90;;;;;;5033209;28;20036;-35
2022/06/24 03:51:23;;;;;;;6.82;2.88;;;18.20;99.90;;;;;;5033645;28;20029;-36
2022/06/24 03:53:48;;;;;;;2.80;2.60;;;18.10;99.90;;;;;;5042397;28;20536;-36
2022/06/24 03:56:14;;;;;;;11.48;2.95;;;18.10;99.90;;;;;;5035187;28;20069;-37
2022/06/24 03:58:39;;;;;;;5.95;2.63;;;18.10;99.90;;;;;;5032265;28;20026;-32
2022/06/24 04:01:05;;;;;;;2.33;2.10;;;18.00;99.90;;;;;;5045794;28;20094;-46
2022/06/24 04:03:31;;;;;;;8.18;2.97;;;18.00;99.90;;;;;;5048638;28;20052;-40
2022/06/24 04:05:56;;;;;;;6.70;2.15;;;17.90;99.90;;;;;;5035110;28;20042;-38
2022/06/24 04:08:22;;;;;;;7.80;2.80;;;17.80;99.90;;;;;;5033245;28;20075;-38
2022/06/24 04:10:47;;;;;;;2.58;2.38;;;17.80;99.90;;;;;;5032353;28;20462;-32
2022/06/24 04:13:13;;;;;;;4.88;2.03;;;17.80;99.90;;;;;;5050500;28;20056;-37
2022/06/24 04:15:46;;;;;;;5.60;2.35;;;17.80;99.90;;;;;;5030350;28;20565;-36
2022/06/24 04:18:12;;;;;;;3.63;2.22;;;17.80;99.90;;;;;;5039176;28;20084;-37
2022/06/24 04:20:39;;;;;;;7.10;2.60;;;17.80;99.90;;;;;;5047337;28;20075;-34
2022/06/24 04:23:04;;;;;;;3.42;2.50;;;17.70;99.90;;;;;;5034694;28;20040;-37
2022/06/24 04:25:30;;;;;;;5.03;2.55;;;17.80;99.90;;;;;;5034843;28;20029;-36
2022/06/24 04:27:56;;;;;;;6.18;2.38;;;17.80;99.90;;;;;;5043395;28;20021;-38
2022/06/24 04:30:21;;;;;;;2.75;2.47;;;17.80;99.90;;;;;;5043680;28;20033;-38
2022/06/24 04:32:47;;;;;;;4.15;2.70;;;17.90;99.90;;;;;;5046850;28;20060;-31
2022/06/24 04:35:13;;;;;;;5.43;2.83;;;17.90;99.90;;;;;;5046283;28;20028;-40
2022/06/24 04:37:40;;;;;;;6.10;2.92;;;18.00;99.90;;;;;;5045375;28;20029;-37
2022/06/24 04:40:13;;;;;;;4.40;2.70;;;18.10;99.90;;;;;;5047720;28;20021;-36
2022/06/24 04:42:39;;;;;;;3.22;2.67;;;18.10;99.90;;;;;;5032876;28;20585;-37
2022/06/24 04:45:06;;;;;;;6.60;3.35;;;18.20;99.90;;;;;;5041514;28;20036;-37
2022/06/24 04:47:32;;;;;;;7.70;4.00;;;18.20;99.90;;;;;;5044562;28;20362;-33
2022/06/24 04:49:57;;;;;;;6.85;3.60;;;18.30;99.90;;;;;;5033007;28;20037;-31
2022/06/24 04:52:23;;;;;;;6.35;3.45;;;18.30;99.90;;;;;;5046964;28;20075;-30
2022/06/24 04:54:50;;;;;;;6.43;3.40;;;18.40;99.90;;;;;;5046154;28;20121;-34
2022/06/24 04:57:16;;;;;;;6.43;4.28;;;18.40;99.90;;;;;;5047111;28;20497;-33
2022/06/24 04:59:42;;;;;;;4.55;3.47;;;18.40;99.90;;;;;;5054309;28;20537;-36
2022/06/24 05:02:08;;;;;;;5.90;3.70;;;18.40;99.90;;;;;;5044756;28;20120;-38
2022/06/24 05:04:35;;;;;;;4.85;3.45;;;18.40;99.90;;;;;;5036753;28;20481;-38
2022/06/24 05:07:01;;;;;;;7.95;4.70;;;18.50;99.90;;;;;;5049949;28;20036;-35
2022/06/24 05:09:27;;;;;;;5.53;3.65;;;18.50;99.90;;;;;;5036781;28;20482;-32
2022/06/24 05:11:53;;;;;;;6.20;4.03;;;18.50;99.90;;;;;;5040342;28;20039;-35
2022/06/24 05:14:19;;;;;;;6.85;3.83;;;18.40;99.90;;;;;;5046252;28;20032;-33
2022/06/24 05:16:44;;;;;;;8.57;4.78;;;18.50;99.90;;;;;;5056170;28;20037;-33
2022/06/24 05:19:10;;;;;;;6.53;3.97;;;18.50;99.90;;;;;;5041164;28;20029;-37
2022/06/24 05:21:36;;;;;;;8.98;3.72;;;18.50;99.90;;;;;;5048541;28;20021;-32
2022/06/24 05:24:02;;;;;;;6.10;4.13;;;18.60;99.90;;;;;;5035917;28;20033;-32
2022/06/24 05:26:27;;;;;;;6.28;3.80;;;18.60;99.90;;;;;;5037287;28;20055;-47
2022/06/24 05:28:53;;;;;;;5.97;4.00;;;18.70;99.90;;;;;;5039492;28;20041;-48
2022/06/24 05:31:19;;;;;;;6.05;4.35;;;18.70;99.90;;;;;;5038153;28;20489;-38
2022/06/24 05:33:44;;;;;;;4.15;3.70;;;18.70;99.90;;;;;;5039027;28;20037;-37
2022/06/24 05:36:10;;;;;;;8.15;4.53;;;18.80;99.90;;;;;;5043330;28;20029;-35
2022/06/24 05:38:36;;;;;;;5.80;3.65;;;18.80;99.90;;;;;;5045470;28;20470;-32
2022/06/24 05:41:03;;;;;;;5.15;4.05;;;18.80;99.90;;;;;;5053737;28;20588;-32
2022/06/24 05:43:29;;;;;;;6.90;3.55;;;18.90;99.90;;;;;;5053870;28;20481;-34
2022/06/24 05:45:55;;;;;;;6.63;3.95;;;18.80;99.90;;;;;;5055306;28;20052;-31
2022/06/24 05:48:20;;;;;;;6.72;4.25;;;18.80;99.90;;;;;;5051072;28;20033;-31
2022/06/24 05:50:46;;;;;;;6.70;4.47;;;18.80;99.90;;;;;;5055385;28;20393;-34
2022/06/24 05:55:58;;;;;;;4.95;4.40;;;18.80;99.90;;;;;;5044687;28;20098;-31
2022/06/24 05:58:25;;;;;;;5.78;4.22;;;18.90;99.90;;;;;;5047566;28;20489;-36
2022/06/24 06:00:51;;;;;;;10.02;4.60;;;18.90;99.90;;;;;;5054896;28;20507;-43
2022/06/24 06:03:17;;;;;;;8.18;4.90;;;19.00;99.90;;;;;;5055132;28;20542;-32
2022/06/24 06:05:43;;;;;;;7.50;5.25;;;19.00;99.90;;;;;;5045395;28;20024;-37
2022/06/24 06:08:10;;;;;;;8.65;4.75;;;18.90;99.90;;;;;;5053295;28;20533;-37
2022/06/24 06:10:37;;;;;;;7.20;4.70;;;18.90;99.90;;;;;;5052243;28;20547;-32
2022/06/24 06:13:03;;;;;;;8.02;5.63;;;18.90;99.90;;;;;;5054243;28;20079;-38
2022/06/24 06:15:31;;;;;;;7.88;5.43;;;18.90;99.90;;;;;;5054917;28;20420;-34
2022/06/24 06:18:01;;;;;;;10.10;4.93;;;18.90;99.90;;;;;;5042279;28;20492;-31
2022/06/24 06:20:27;;;;;;;7.85;5.57;;;18.90;99.90;;;;;;5049141;28;20021;-33
2022/06/24 06:22:53;;;;;;;5.85;4.72;;;18.90;99.90;;;;;;5049831;28;20051;-32
2022/06/24 06:25:18;;;;;;;6.75;5.45;;;19.00;99.90;;;;;;5048452;28;20030;-33
2022/06/24 06:27:44;;;;;;;6.95;6.00;;;19.00;99.90;;;;;;5039545;28;20049;-34
2022/06/24 06:30:10;;;;;;;11.82;5.95;;;19.10;99.90;;;;;;5036320;28;20025;-33
2022/06/24 06:32:36;;;;;;;7.85;5.57;;;19.20;99.90;;;;;;5046276;28;20078;-35
2022/06/24 06:35:03;;;;;;;7.97;6.57;;;19.30;99.90;;;;;;5040931;28;20481;-35
2022/06/24 06:37:29;;;;;;;10.38;7.15;;;19.30;99.90;;;;;;5036318;28;20386;-33
2022/06/24 06:39:55;;;;;;;13.25;6.75;;;19.40;99.90;;;;;;5038617;28;20037;-31
2022/06/24 06:42:21;;;;;;;9.55;6.30;;;19.40;99.90;;;;;;5049772;28;20029;-32
2022/06/24 06:44:47;;;;;;;13.55;7.25;;;19.40;99.90;;;;;;5035709;28;20108;-33
2022/06/24 06:47:12;;;;;;;11.90;6.68;;;19.50;99.90;;;;;;5037641;28;20026;-34
2022/06/24 06:49:38;;;;;;;12.93;6.93;;;19.50;99.90;;;;;;5037359;28;20037;-34
2022/06/24 06:52:04;;;;;;;11.82;7.22;;;19.50;99.90;;;;;;5054318;28;20481;-32
2022/06/24 06:54:30;;;;;;;7.43;6.05;;;19.60;99.90;;;;;;5051116;28;20024;-32
2022/06/24 06:56:56;;;;;;;8.05;6.57;;;19.70;99.90;;;;;;5037414;28;20525;-32
2022/06/24 06:59:22;;;;;;;12.47;4.77;;;19.70;99.90;;;;;;5043523;28;20489;-32
2022/06/24 07:01:48;;;;;;;7.13;5.93;;;19.70;99.90;;;;;;5042018;28;20083;-30
2022/06/24 07:04:14;;;;;;;9.43;6.00;;;19.70;99.90;;;;;;5040743;28;20025;-33
2022/06/24 07:06:40;;;;;;;10.07;6.50;;;19.70;99.90;;;;;;5049990;28;20112;-30
2022/06/24 07:09:05;;;;;;;10.00;6.63;;;19.70;99.90;;;;;;5045271;28;20517;-32
2022/06/24 07:11:31;;;;;;;12.32;5.90;;;19.70;99.90;;;;;;5047100;28;20482;-32
2022/06/24 07:13:57;;;;;;;8.45;6.72;;;19.70;99.90;;;;;;5048572;28;20026;-48
2022/06/24 07:16:22;;;;;;;11.07;6.90;;;19.70;99.90;;;;;;5044592;28;20489;-37
2022/06/24 07:18:48;;;;;;;12.32;6.65;;;19.70;99.90;;;;;;5054515;28;20528;-38
2022/06/24 07:21:14;;;;;;;8.35;6.60;;;19.70;99.90;;;;;;5044765;28;20036;-38
2022/06/24 07:23:40;;;;;;;14.30;6.93;;;19.70;99.90;;;;;;5037771;28;20033;-38
2022/06/24 07:26:06;;;;;;;10.25;7.00;;;19.80;99.90;;;;;;5053608;28;20481;-37
2022/06/24 07:28:34;;;;;;;10.02;6.38;;;19.70;99.90;;;;;;5054289;28;20025;-35
2022/06/24 07:30:59;;;;;;;8.27;6.13;;;19.70;99.90;;;;;;5049954;28;20030;-34
2022/06/24 07:33:25;;;;;;;13.73;7.75;;;19.70;99.90;;;;;;5042339;28;20035;-31
2022/06/24 07:35:51;;;;;;;10.43;7.65;;;19.70;99.90;;;;;;5051136;28;20025;-30
2022/06/24 07:38:17;;;;;;;9.15;7.57;;;19.70;99.90;;;;;;5040762;28;20465;-33
2022/06/24 07:40:42;;;;;;;10.38;7.10;;;19.70;99.90;;;;;;5041302;28;20076;-35
2022/06/24 07:43:08;;;;;;;11.00;7.60;;;19.70;99.90;;;;;;5040647;28;20496;-48
2022/06/24 07:45:34;;;;;;;11.73;7.43;;;19.80;99.90;;;;;;5040668;28;20045;-39
2022/06/24 07:48:00;;;;;;;11.10;7.78;;;19.80;99.90;;;;;;5033950;28;20389;-38
2022/06/24 07:50:26;;;;;;;13.95;7.88;;;19.80;99.90;;;;;;5040882;28;20043;-38
2022/06/24 07:52:51;;;;;;;11.45;8.95;;;19.80;99.90;;;;;;5041653;28;20535;-38
2022/06/24 07:58:02;;;;;;;14.15;9.60;;;19.90;99.90;;;;;;5051903;28;20106;-32
2022/06/24 08:00:27;;;;;;;16.45;10.15;;;19.90;99.90;;;;;;5048368;28;20018;-31
2022/06/24 08:02:53;;;;;;;18.45;10.57;;;19.90;99.90;;;;;;5033619;28;20036;-35
2022/06/24 08:05:19;;;;;;;19.40;11.23;;;19.90;99.90;;;;;;5041273;28;20482;-33
2022/06/24 08:07:45;;;;;;;12.30;9.15;;;19.90;99.90;;;;;;5033740;28;20108;-31
2022/06/24 08:10:11;;;;;;;13.38;10.35;;;19.90;99.90;;;;;;5033609;28;20033;-35
2022/06/24 08:12:37;;;;;;;19.23;10.95;;;20.00;99.90;;;;;;5033528;28;20108;-33
2022/06/24 08:15:03;;;;;;;13.95;9.52;;;20.00;99.90;;;;;;5032780;28;20117;-34
2022/06/24 08:17:28;;;;;;;17.33;10.65;;;20.10;99.90;;;;;;5033482;28;20850;-37
2022/06/24 08:19:54;;;;;;;13.88;10.45;;;20.20;99.90;;;;;;5033490;28;20032;-33
2022/06/24 08:22:23;;;;;;;19.85;10.05;;;20.20;99.90;;;;;;5037719;28;20078;-35
2022/06/24 08:24:48;;;;;;;16.65;9.50;;;20.20;99.90;;;;;;5033620;28;20402;-36
2022/06/24 08:27:14;;;;;;;17.92;9.65;;;20.30;99.90;;;;;;5032354;28;20045;-33
2022/06/24 08:29:40;;;;;;;15.73;8.80;;;20.30;99.90;;;;;;5049469;28;20120;-36
2022/06/24 08:32:05;;;;;;;17.30;8.43;;;20.40;99.90;;;;;;5047832;28;20045;-34
2022/06/24 08:34:31;;;;;;;14.27;8.75;;;20.30;99.90;;;;;;5040773;28;20033;-39
2022/06/24 08:36:57;;;;;;;14.88;9.52;;;20.30;99.90;;;;;;5032764;28;20029;-31
2022/06/24 08:39:22;;;;;;;18.52;9.95;;;20.40;99.90;;;;;;5052830;28;20029;-30
2022/06/24 08:41:52;;;;;;;15.52;10.75;;;20.30;99.90;;;;;;5042963;28;20029;-33
2022/06/24 08:44:18;;;;;;;13.10;9.65;;;20.20;99.90;;;;;;5031351;28;20494;-34
2022/06/24 08:46:43;;;;;;;17.10;11.52;;;20.10;99.90;;;;;;5045839;28;20255;-40
2022/06/24 08:49:09;;;;;;;18.80;10.95;;;20.20;99.90;;;;;;5049098;28;20020;-30
2022/06/24 08:51:35;;;;;;;15.20;9.68;;;20.30;99.90;;;;;;5037593;28;20032;-31
2022/06/24 08:54:02;;;;;;;11.38;8.55;;;20.30;99.90;;;;;;5053025;28;20078;-31
2022/06/24 08:56:29;;;;;;;9.88;7.38;;;20.30;99.90;;;;;;5052974;28;20493;-37
2022/06/24 08:58:55;;;;;;;11.68;6.25;;;20.30;99.90;;;;;;5051676;28;20033;-36
2022/06/24 09:01:21;;;;;;;8.07;6.13;;;20.30;99.90;;;;;;5042974;28;20025;-36
2022/06/24 09:03:48;;;;;;;9.65;6.13;;;20.30;99.90;;;;;;5043562;28;20117;-55
2022/06/24 09:06:15;;;;;;;7.90;6.13;;;20.40;99.90;;;;;;5036170;28;20025;-38
2022/06/24 09:08:44;;;;;;;11.80;7.18;;;20.30;99.90;;;;;;5049145;28;20029;-36
2022/06/24 09:11:11;;;;;;;10.93;8.10;;;20.40;99.90;;;;;;5042819;28;20485;-37
2022/06/24 09:13:49;;;;;;;18.40;8.85;;;20.40;99.90;;;;;;5043929;28;20488;-36
2022/06/24 09:16:20;;;;;;;14.15;8.45;;;20.50;99.90;;;;;;5037420;28;20477;-34
2022/06/24 09:18:51;;;;;;;11.32;8.80;;;20.60;99.90;;;;;;5033417;28;20123;-36
2022/06/24 09:21:28;;;;;;;11.27;8.45;;;20.70;99.90;;;;;;5038018;28;20476;-33
2022/06/24 09:24:05;;;;;;;13.00;8.80;;;20.80;99.90;;;;;;5043576;28;20347;-48
2022/06/24 09:26:36;;;;;;;10.90;8.82;;;20.90;99.90;;;;;;5038697;28;20021;-36
2022/06/24 09:29:07;;;;;;;10.43;7.82;;;20.90;99.90;;;;;;5036769;28;20523;-38
2022/06/24 09:31:33;;;;;;;12.20;7.78;;;20.90;99.90;;;;;;5038339;28;20048;-39
2022/06/24 09:34:18;;;;;;;12.48;7.93;;;21.00;99.90;;;;;;5043391;28;20045;-37
2022/06/24 09:36:47;;;;;;;11.88;8.60;;;21.00;99.90;;;;;;5035701;28;20123;-38
2022/06/24 09:39:15;;;;;;;9.50;7.18;;;21.10;99.90;;;;;;5048191;28;20025;-37
2022/06/24 09:41:48;;;;;;;13.98;7.85;;;21.30;99.90;;;;;;5046459;28;20496;-36
2022/06/24 09:44:14;;;;;;;11.38;7.22;;;21.30;99.90;;;;;;5034126;28;20026;-37
2022/06/24 09:46:40;;;;;;;11.55;7.75;;;21.30;99.90;;;;;;5034312;28;20031;-36
2022/06/24 09:49:09;;;;;;;11.38;7.95;;;21.40;99.90;;;;;;5035448;28;20496;-42
2022/06/24 09:51:35;;;;;;;10.45;7.32;;;21.30;99.90;;;;;;5035830;28;21801;-38
2022/06/24 09:54:01;;;;;;;14.75;8.85;;;21.30;99.90;;;;;;5034801;28;20476;-35
2022/06/24 09:56:28;;;;;;;13.50;9.10;;;21.40;99.90;;;;;;5034462;28;20021;-38
2022/06/24 10:01:41;;;;;;;16.90;9.13;;;21.60;99.90;;;;;;5039904;28;20374;-37
2022/06/24 10:04:09;;;;;;;;;;;21.90;99.90;;;;;;5055590;28;20544;-38
2022/06/24 10:06:38;;;;;;;15.07;8.55;;;22.10;99.90;;;;;;5044574;28;20294;-39
2022/06/24 10:09:07;;;;;;;16.00;8.73;;;22.20;99.90;;;;;;5046524;28;20025;-36
2022/06/24 10:11:37;;;;;;;15.07;9.10;;;22.30;99.90;;;;;;5039773;28;20083;-37
2022/06/24 10:14:02;;;;;;;13.57;9.73;;;22.30;99.90;;;;;;5041442;28;20025;-37
2022/06/24 10:16:28;;;;;;;13.90;9.60;;;22.40;99.90;;;;;;5048700;28;20029;-36
2022/06/24 10:18:55;;;;;;;14.00;9.18;;;22.60;99.90;;;;;;5055752;28;20029;-38
2022/06/24 10:21:21;;;;;;;15.88;11.07;;;22.80;99.90;;;;;;5050490;28;20128;-39
2022/06/24 10:23:47;;;;;;;13.75;9.38;;;23.10;99.90;;;;;;5035615;28;20025;-42
2022/06/24 10:26:23;;;;;;;14.23;9.70;;;23.30;99.90;;;;;;5035581;28;20026;-38
2022/06/24 10:29:03;;;;;;;17.00;9.27;;;23.20;99.90;;;;;;5039838;28;20469;-39
2022/06/24 10:31:48;;;;;;;17.38;10.25;;;23.30;99.90;;;;;;5052626;28;20441;-37
2022/06/24 10:34:22;;;;;;;12.52;9.23;;;23.50;99.90;;;;;;5037430;28;20413;-45
2022/06/24 10:37:04;;;;;;;13.77;9.18;;;23.30;99.90;;;;;;5050544;28;20040;-58
2022/06/24 10:39:43;;;;;;;13.95;10.27;;;23.20;99.90;;;;;;5054557;28;20068;-38
2022/06/24 10:42:10;;;;;;;19.55;10.50;;;23.00;99.90;;;;;;5039342;28;20121;-37
2022/06/24 10:44:38;;;;;;;15.48;9.88;;;22.80;99.90;;;;;;5035016;28;20033;-36
2022/06/24 10:47:12;;;;;;;14.30;9.60;;;22.60;99.90;;;;;;5038540;28;20021;-38
2022/06/24 10:49:55;;;;;;;19.17;10.88;;;22.40;99.90;;;;;;5036825;28;20505;-36
2022/06/24 10:52:48;;;;;;;16.10;10.38;;;22.40;99.90;;;;;;5034216;28;20417;-39
2022/06/24 10:55:16;;;;;;;13.18;9.70;;;22.80;99.90;;;;;;5035139;28;20029;-38
2022/06/24 10:57:46;;;;;;;12.75;8.85;;;23.30;99.90;;;;;;5038413;28;20123;-37
2022/06/24 11:00:19;;;;;;;14.02;8.70;;;23.80;99.90;;;;;;5039069;28;20029;-37
2022/06/24 11:02:49;;;;;;;17.17;8.88;;;24.20;99.90;;;;;;5039122;28;20477;-39
2022/06/24 11:05:23;;;;;;;12.57;7.80;;;24.60;99.90;;;;;;5047721;28;20029;-33
2022/06/24 11:07:51;;;;;;;10.45;7.38;;;24.80;99.90;;;;;;5041306;28;20021;-31
2022/06/24 11:10:17;;;;;;;12.02;6.63;;;25.00;99.90;;;;;;5052572;28;20415;-31
2022/06/24 11:12:48;;;;;;;10.85;7.68;;;25.00;99.90;;;;;;5036813;28;20121;-37
2022/06/24 11:15:13;;;;;;;9.48;6.65;;;24.80;99.90;;;;;;5034762;28;20025;-35
2022/06/24 11:17:41;;;;;;;11.25;6.15;;;24.60;99.90;;;;;;5034708;28;20036;-33
2022/06/24 11:20:09;;;;;;;8.93;5.55;;;24.40;99.90;;;;;;5034424;28;20044;-37
2022/06/24 11:22:45;;;;;;;7.68;5.15;;;24.40;99.90;;;;;;5037253;28;20461;-34
2022/06/24 11:25:13;;;;;;;9.40;5.47;;;24.40;99.90;;;;;;5054418;28;20087;-31
2022/06/24 11:27:38;;;;;;;10.52;4.80;;;24.20;99.90;;;;;;5054430;28;20087;-31
2022/06/24 11:30:06;;;;;;;5.65;4.40;;;24.00;99.90;;;;;;5050835;28;20029;-32
2022/06/24 11:32:51;;;;;;;;;;;23.80;99.90;;;;;;5051501;28;20076;-35
2022/06/24 11:35:18;;;;;;;8.02;5.15;;;23.70;99.90;;;;;;5040216;28;20332;-28
2022/06/24 11:37:44;;;;;;;6.78;4.97;;;23.50;99.90;;;;;;5040572;28;20034;-32
2022/06/24 11:40:31;;;;;;;7.82;4.68;;;23.40;99.90;;;;;;5046140;28;20112;-34
2022/06/24 11:43:02;;;;;;;25.90;9.32;;;23.20;99.90;;;;;;5053583;28;20048;-39
2022/06/24 11:45:35;;;;;;;9.80;7.35;;;23.10;99.90;;;;;;5036288;28;20393;-35
2022/06/24 11:48:03;;;;;;;8.75;6.97;;;22.90;99.90;;;;;;5039645;28;20482;-43
2022/06/24 11:50:28;;;;;;;;;;;22.80;99.90;;;;;;5053244;28;20358;-30
2022/06/24 11:52:57;;;;;;;11.57;8.13;;;22.70;99.90;;;;;;5044425;28;19913;-31
2022/06/24 11:55:27;;;;;;;16.00;8.88;;;22.60;99.90;;;;;;5047471;28;20115;-30
2022/06/24 11:57:57;;;;;;;12.93;9.40;;;22.40;99.90;;;;;;5047990;28;20033;-36
2022/06/24 12:00:25;;;;;;;20.08;10.40;;;22.20;99.90;;;;;;5052662;28;20543;-30
2022/06/24 12:02:52;;;;;;;14.60;8.18;;;22.00;99.90;;;;;;5051814;28;20013;-32
2022/06/24 12:05:20;;;;;;;16.75;9.55;;;21.90;99.90;;;;;;5045537;28;20386;-28
2022/06/24 12:07:47;;;;;;;18.23;8.80;;;21.70;99.90;;;;;;5050959;28;20025;-39
2022/06/24 12:10:13;;;;;;;19.87;9.50;;;21.70;99.90;;;;;;5049958;28;20042;-35
2022/06/24 12:12:55;;;;;;;15.55;8.32;;;21.80;99.90;;;;;;5046846;28;20294;-45
2022/06/24 12:15:35;;;;;;;16.98;8.25;;;22.00;99.90;;;;;;5033817;28;20025;-37
2022/06/24 12:18:00;;;;;;;14.07;8.25;;;22.20;99.90;;;;;;5045110;28;20532;-36
2022/06/24 12:20:29;;;;;;;16.15;8.68;;;22.30;99.90;;;;;;5053244;28;20052;-45
2022/06/24 12:23:13;;;;;;;17.90;8.90;;;22.50;99.90;;;;;;5051891;28;20112;-34
2022/06/24 12:25:40;;;;;;;9.63;7.22;;;22.50;99.90;;;;;;5053431;28;20111;-38
2022/06/24 12:28:32;;;;;;;15.32;8.43;;;22.60;99.90;;;;;;5051602;28;20036;-31
2022/06/24 12:31:01;;;;;;;15.98;9.60;;;22.60;99.90;;;;;;5047787;28;20548;-36
2022/06/24 12:33:29;;;;;;;15.00;10.15;;;22.50;99.90;;;;;;5043111;28;20099;-57
2022/06/24 12:36:12;;;;;;;16.75;9.95;;;22.50;99.90;;;;;;5051657;28;20064;-37
2022/06/24 12:38:40;;;;;;;13.57;10.48;;;22.40;99.90;;;;;;5039991;28;20025;-44
2022/06/24 12:41:08;;;;;;;18.02;10.45;;;22.40;99.90;;;;;;5051089;28;20017;-37
2022/06/24 12:43:34;;;;;;;16.85;9.93;;;22.50;99.90;;;;;;5048854;28;20078;-37
2022/06/24 12:46:03;;;;;;;15.55;10.63;;;22.70;99.90;;;;;;5050447;28;20029;-37
2022/06/24 12:51:13;;;;;;;24.33;11.23;;;23.40;99.90;;;;;;5037872;28;20075;-36
2022/06/24 12:53:45;;;;;;;17.92;11.00;;;23.80;99.90;;;;;;5041599;28;20425;-38
2022/06/24 12:56:10;;;;;;;14.20;9.75;;;24.20;99.90;;;;;;5033143;28;20568;-36
2022/06/24 12:58:36;;;;;;;16.75;9.95;;;24.60;99.90;;;;;;5048388;28;20060;-38